Kincaid, Kansas
Current Conditions -  °F | °C
As of 3:52 AM on Tuesday 21 Oct 2014 (Local Time) from KCNU Reporting Station
Clear Clear  
Wind Chill: 47°   Ceiling: Unl
Heat Index: 47°   Visibility: 10mi
Dew Point: 46°   Wind: 3mph
Humidity: 97%   Direction: 10°N
Pressure: 30.08"   Gusts: NA
Location:  38.08°N, 95.15°W
Report Text: KCNU 210852Z AUTO 01003KT 10SM CLR 08/08 A3008 RMK AO2 SLP180 T00830078 50002
Loading
Personal Weather Stations






























Interactive Weather Map
Tropical Storm Tracking
New forecast layout! Learn more

10-Day Weather Forecast

Advertisements
Track Severe Weather on mobile